createdAt,value
2022-11-07T00:00:23.628Z,5.5
2022-11-07T00:01:23.735Z,5.5
2022-11-07T00:02:23.687Z,5.5
2022-11-07T00:03:23.632Z,5.4
2022-11-07T00:04:23.641Z,5.4
2022-11-07T00:05:23.613Z,5.4
2022-11-07T00:06:23.611Z,5.4
2022-11-07T00:07:23.654Z,5.3
2022-11-07T00:08:23.633Z,5.3
2022-11-07T00:09:23.643Z,5.3
2022-11-07T00:10:23.629Z,5.3
2022-11-07T00:11:23.631Z,5.3
2022-11-07T00:12:23.617Z,5.3
2022-11-07T00:13:23.633Z,5.3
2022-11-07T00:14:23.630Z,5.3
2022-11-07T00:15:23.614Z,5.3
2022-11-07T00:16:23.661Z,5.2
2022-11-07T00:17:23.655Z,5.2
2022-11-07T00:18:23.623Z,5.2
2022-11-07T00:19:23.644Z,5.2
2022-11-07T00:20:23.640Z,5.2
2022-11-07T00:21:23.664Z,5.2
2022-11-07T00:22:23.616Z,5.2
2022-11-07T00:23:23.642Z,5.1
2022-11-07T00:24:23.632Z,5.1
2022-11-07T00:25:23.619Z,5.2
2022-11-07T00:26:23.647Z,5.1
2022-11-07T00:27:23.676Z,5.1
2022-11-07T00:28:23.627Z,5.1
2022-11-07T00:29:23.640Z,5.1
2022-11-07T00:30:23.632Z,5.1
2022-11-07T00:31:23.628Z,5
2022-11-07T00:32:23.646Z,5
2022-11-07T00:33:23.613Z,5.1
2022-11-07T00:34:23.647Z,5
2022-11-07T00:35:23.638Z,5.1
2022-11-07T00:36:23.623Z,5.1
2022-11-07T00:37:23.629Z,5.1
2022-11-07T00:38:23.680Z,5.1
2022-11-07T00:39:23.646Z,5.1
2022-11-07T00:40:23.621Z,5.1
2022-11-07T00:41:23.641Z,5.1
2022-11-07T00:42:23.620Z,5.1
2022-11-07T00:43:23.625Z,5.1
2022-11-07T00:44:23.632Z,5.1
2022-11-07T00:45:23.645Z,5.1
2022-11-07T00:46:23.629Z,5
2022-11-07T00:47:23.627Z,5
2022-11-07T00:48:23.626Z,5
2022-11-07T00:49:23.620Z,5
2022-11-07T00:50:23.617Z,5
2022-11-07T00:51:23.723Z,5
2022-11-07T00:52:23.654Z,5
2022-11-07T00:53:23.678Z,5
2022-11-07T00:54:23.636Z,5.1
2022-11-07T00:55:23.648Z,5.1
2022-11-07T00:56:23.627Z,5
2022-11-07T00:57:23.629Z,5.1
2022-11-07T00:58:23.640Z,5.1
2022-11-07T00:59:23.642Z,5.1
2022-11-07T01:00:23.633Z,5.1
2022-11-07T01:01:23.771Z,5
2022-11-07T01:02:23.782Z,5
2022-11-07T01:03:23.651Z,5
2022-11-07T01:04:23.652Z,5
2022-11-07T01:05:23.637Z,5
2022-11-07T01:06:23.628Z,5
2022-11-07T01:07:23.626Z,5
2022-11-07T01:08:23.653Z,5
2022-11-07T01:09:23.645Z,5
2022-11-07T01:10:23.633Z,5
2022-11-07T01:11:23.633Z,5
2022-11-07T01:12:23.620Z,5
2022-11-07T01:13:23.645Z,5
2022-11-07T01:14:23.648Z,5
2022-11-07T01:15:23.652Z,5
2022-11-07T01:16:23.652Z,5
2022-11-07T01:17:23.632Z,5
2022-11-07T01:18:23.638Z,5
2022-11-07T01:19:23.641Z,5
2022-11-07T01:20:23.717Z,5
2022-11-07T01:21:23.624Z,4.9
2022-11-07T01:22:23.611Z,5
2022-11-07T01:23:23.669Z,5
2022-11-07T01:24:23.637Z,4.9
2022-11-07T01:25:23.613Z,5
2022-11-07T01:26:23.654Z,5
2022-11-07T01:27:23.635Z,4.9
2022-11-07T01:28:23.626Z,5
2022-11-07T01:29:23.629Z,5
2022-11-07T01:30:23.648Z,5
2022-11-07T01:31:23.625Z,5
2022-11-07T01:32:23.678Z,4.9
2022-11-07T01:33:23.642Z,4.9
2022-11-07T01:34:23.904Z,4.9
2022-11-07T01:35:23.781Z,4.9
2022-11-07T01:36:23.836Z,4.9
2022-11-07T01:37:23.875Z,5
2022-11-07T01:38:23.675Z,5
2022-11-07T01:39:23.644Z,5
2022-11-07T01:40:23.636Z,5
2022-11-07T01:41:23.628Z,5
2022-11-07T01:42:23.613Z,5
2022-11-07T01:43:23.629Z,5
2022-11-07T01:44:23.663Z,5
2022-11-07T01:45:23.623Z,5
2022-11-07T01:46:23.619Z,5
2022-11-07T01:47:23.637Z,5
2022-11-07T01:48:23.634Z,5
2022-11-07T01:49:23.634Z,5
2022-11-07T01:50:24.940Z,5
2022-11-07T01:51:23.638Z,5
2022-11-07T01:52:23.665Z,5
2022-11-07T01:53:23.636Z,5
2022-11-07T01:54:23.673Z,5.1
2022-11-07T01:55:23.623Z,5
2022-11-07T01:56:23.634Z,5.1
2022-11-07T01:57:23.674Z,5.1
2022-11-07T01:58:23.612Z,5
2022-11-07T01:59:23.655Z,5
2022-11-07T02:00:23.627Z,5
2022-11-07T02:01:23.729Z,5
2022-11-07T02:02:23.731Z,5
2022-11-07T02:03:23.695Z,5
2022-11-07T02:04:23.636Z,5
2022-11-07T02:05:23.623Z,5
2022-11-07T02:06:23.637Z,5
2022-11-07T02:07:23.638Z,5
2022-11-07T02:08:23.647Z,5
2022-11-07T02:09:23.644Z,4.9
2022-11-07T02:10:23.624Z,4.9
2022-11-07T02:11:23.626Z,4.9
2022-11-07T02:12:23.664Z,4.9
2022-11-07T02:13:23.627Z,4.9
2022-11-07T02:14:23.639Z,4.9
2022-11-07T02:15:23.635Z,4.9
2022-11-07T02:16:23.651Z,4.9
2022-11-07T02:17:23.630Z,4.9
2022-11-07T02:18:23.634Z,4.9
2022-11-07T02:19:23.633Z,4.8
2022-11-07T02:20:23.634Z,4.8
2022-11-07T02:21:23.618Z,4.9
2022-11-07T02:22:23.634Z,4.8
2022-11-07T02:23:23.658Z,4.8
2022-11-07T02:24:23.636Z,4.8
2022-11-07T02:25:23.654Z,4.8
2022-11-07T02:26:23.638Z,4.8
2022-11-07T02:27:23.626Z,4.8
2022-11-07T02:28:23.636Z,4.8
2022-11-07T02:29:23.632Z,4.9
2022-11-07T02:30:23.639Z,4.8
2022-11-07T02:31:23.623Z,4.8
2022-11-07T02:32:23.668Z,4.9
2022-11-07T02:33:23.631Z,4.9
2022-11-07T02:34:23.656Z,4.8
2022-11-07T02:35:23.633Z,4.9
2022-11-07T02:36:23.660Z,4.9
2022-11-07T02:37:23.630Z,4.9
2022-11-07T02:38:23.805Z,4.9
2022-11-07T02:39:23.651Z,4.9
2022-11-07T02:40:23.637Z,4.9
2022-11-07T02:41:23.637Z,4.9
2022-11-07T02:42:23.641Z,4.9
2022-11-07T02:43:23.623Z,4.9
2022-11-07T02:44:23.632Z,4.9
2022-11-07T02:45:23.663Z,5
2022-11-07T02:46:23.680Z,4.9
2022-11-07T02:47:23.631Z,5
2022-11-07T02:48:23.649Z,4.9
2022-11-07T02:49:23.654Z,4.9
2022-11-07T02:50:23.648Z,4.9
2022-11-07T02:51:23.634Z,5
2022-11-07T02:52:23.630Z,5
2022-11-07T02:53:23.652Z,5
2022-11-07T02:54:23.636Z,5
2022-11-07T02:55:23.627Z,5
2022-11-07T02:56:23.668Z,5
2022-11-07T02:57:23.644Z,5
2022-11-07T02:58:23.633Z,5
2022-11-07T02:59:26.965Z,5
2022-11-07T03:00:23.667Z,5
2022-11-07T03:01:23.799Z,5
2022-11-07T03:02:23.723Z,5
2022-11-07T03:03:23.635Z,5
2022-11-07T03:04:23.653Z,5
2022-11-07T03:05:23.651Z,5
2022-11-07T03:06:23.622Z,5
2022-11-07T03:07:23.629Z,5
2022-11-07T03:08:23.656Z,5
2022-11-07T03:09:23.637Z,5
2022-11-07T03:10:23.648Z,5
2022-11-07T03:11:23.676Z,5
2022-11-07T03:12:23.644Z,5
2022-11-07T03:13:23.628Z,5
2022-11-07T03:14:23.707Z,5.1
2022-11-07T03:15:23.643Z,5.1
2022-11-07T03:16:23.637Z,5
2022-11-07T03:17:23.625Z,5
2022-11-07T03:18:23.632Z,5
2022-11-07T03:19:23.640Z,5.1
2022-11-07T03:20:23.647Z,5.1
2022-11-07T03:21:23.629Z,5.1
2022-11-07T03:22:23.631Z,5.1
2022-11-07T03:23:23.658Z,5.1
2022-11-07T03:24:23.654Z,5.1
2022-11-07T03:25:23.623Z,5.1
2022-11-07T03:26:23.627Z,5.1
2022-11-07T03:27:23.661Z,5.1
2022-11-07T03:28:23.617Z,5.1
2022-11-07T03:29:23.648Z,5.1
2022-11-07T03:30:23.622Z,5.1
2022-11-07T03:31:23.634Z,5.1
2022-11-07T03:32:23.623Z,5.1
2022-11-07T03:33:23.651Z,5.1
2022-11-07T03:34:23.669Z,5.1
2022-11-07T03:35:23.644Z,5.1
2022-11-07T03:36:23.637Z,5
2022-11-07T03:37:23.633Z,5.1
2022-11-07T03:38:23.681Z,5
2022-11-07T03:39:25.977Z,5
2022-11-07T03:40:23.627Z,5
2022-11-07T03:41:23.649Z,5.1
2022-11-07T03:42:23.639Z,5
2022-11-07T03:43:23.645Z,5
2022-11-07T03:44:23.655Z,5.1
2022-11-07T03:45:23.632Z,5
2022-11-07T03:46:23.646Z,5
2022-11-07T03:47:23.632Z,5
2022-11-07T03:48:23.628Z,5
2022-11-07T03:49:23.660Z,5
2022-11-07T03:50:23.634Z,5.1
2022-11-07T03:51:23.635Z,5
2022-11-07T03:52:23.681Z,5
2022-11-07T03:53:25.805Z,5.1
2022-11-07T03:54:23.854Z,5.1
2022-11-07T03:55:23.645Z,5
2022-11-07T03:56:23.645Z,5
2022-11-07T03:57:23.636Z,5
2022-11-07T03:58:23.647Z,5
2022-11-07T03:59:23.637Z,5
2022-11-07T04:00:23.637Z,5
2022-11-07T04:01:23.734Z,5
2022-11-07T04:02:23.875Z,5
2022-11-07T04:03:23.622Z,5
2022-11-07T04:04:23.657Z,5
2022-11-07T04:05:23.637Z,5
2022-11-07T04:06:23.664Z,5
2022-11-07T04:07:23.637Z,4.9
2022-11-07T04:08:23.637Z,5
2022-11-07T04:09:23.652Z,5
2022-11-07T04:10:23.632Z,5
2022-11-07T04:11:23.638Z,5
2022-11-07T04:12:23.657Z,4.9
2022-11-07T04:13:23.629Z,5
2022-11-07T04:14:23.660Z,4.9
2022-11-07T04:15:23.634Z,4.9
2022-11-07T04:16:23.652Z,5
2022-11-07T04:17:23.633Z,5
2022-11-07T04:18:23.638Z,5
2022-11-07T04:19:23.649Z,5
2022-11-07T04:20:23.674Z,4.9
2022-11-07T04:21:23.633Z,4.9
2022-11-07T04:22:23.625Z,5
2022-11-07T04:23:23.708Z,5
2022-11-07T04:24:23.719Z,5
2022-11-07T04:25:23.741Z,4.9
2022-11-07T04:26:23.938Z,4.9
2022-11-07T04:27:23.889Z,4.9
2022-11-07T04:28:23.926Z,4.9
2022-11-07T04:29:23.728Z,4.9
2022-11-07T04:30:23.734Z,4.9
2022-11-07T04:31:23.633Z,4.9
2022-11-07T04:32:23.636Z,5
2022-11-07T04:33:23.650Z,4.9
2022-11-07T04:34:23.678Z,4.9
2022-11-07T04:35:23.675Z,4.8
2022-11-07T04:36:23.634Z,4.9
2022-11-07T04:37:23.636Z,4.9
2022-11-07T04:38:23.644Z,4.9
2022-11-07T04:39:23.700Z,4.9
2022-11-07T04:40:23.706Z,4.9
2022-11-07T04:41:23.658Z,4.9
2022-11-07T04:42:23.638Z,4.9
2022-11-07T04:43:23.636Z,4.9
2022-11-07T04:44:23.656Z,4.8
2022-11-07T04:45:23.665Z,4.8
2022-11-07T04:46:23.630Z,4.8
2022-11-07T04:47:23.655Z,4.8
2022-11-07T04:48:23.701Z,4.8
2022-11-07T04:49:23.655Z,4.8
2022-11-07T04:50:23.659Z,4.8
2022-11-07T04:51:23.646Z,4.8
2022-11-07T04:52:23.637Z,4.7
2022-11-07T04:53:23.624Z,4.8
2022-11-07T04:54:23.682Z,4.8
2022-11-07T04:55:23.640Z,4.7
2022-11-07T04:56:23.690Z,4.8
2022-11-07T04:57:23.641Z,4.7
2022-11-07T04:58:23.648Z,4.7
2022-11-07T04:59:23.659Z,4.7
2022-11-07T05:00:23.634Z,4.7
2022-11-07T05:01:23.669Z,4.7
2022-11-07T05:02:23.842Z,4.7
2022-11-07T05:03:23.655Z,4.7
2022-11-07T05:04:23.674Z,4.7
2022-11-07T05:05:23.659Z,4.7
2022-11-07T05:06:23.654Z,4.7
2022-11-07T05:07:23.639Z,4.7
2022-11-07T05:08:23.646Z,4.7
2022-11-07T05:09:23.690Z,4.7
2022-11-07T05:10:23.647Z,4.7
2022-11-07T05:11:23.643Z,4.7
2022-11-07T05:12:23.646Z,4.7
2022-11-07T05:13:23.652Z,4.7
2022-11-07T05:14:23.648Z,4.7
2022-11-07T05:15:23.646Z,4.7
2022-11-07T05:16:23.778Z,4.7
2022-11-07T05:17:27.818Z,4.7
2022-11-07T05:18:23.648Z,4.8
2022-11-07T05:19:23.665Z,4.8
2022-11-07T05:20:23.653Z,4.8
2022-11-07T05:21:23.640Z,4.8
2022-11-07T05:22:23.648Z,4.8
2022-11-07T05:23:23.642Z,4.8
2022-11-07T05:24:23.681Z,4.8
2022-11-07T05:25:23.634Z,4.8
2022-11-07T05:26:23.649Z,4.9
2022-11-07T05:27:23.659Z,4.9
2022-11-07T05:28:31.268Z,4.9
2022-11-07T05:29:23.663Z,4.9
2022-11-07T05:30:23.651Z,4.8
2022-11-07T05:31:23.648Z,4.9
2022-11-07T05:32:23.639Z,4.9
2022-11-07T05:33:23.643Z,4.9
2022-11-07T05:34:23.660Z,4.9
2022-11-07T05:35:23.641Z,4.9
2022-11-07T05:36:23.652Z,4.9
2022-11-07T05:37:23.629Z,4.9
2022-11-07T05:38:23.642Z,4.9
2022-11-07T05:39:23.662Z,4.9
2022-11-07T05:40:23.638Z,4.9
2022-11-07T05:41:23.792Z,4.9
2022-11-07T05:42:23.650Z,4.9
2022-11-07T05:43:23.642Z,4.9
2022-11-07T05:44:23.661Z,4.8
2022-11-07T05:45:23.665Z,4.9
2022-11-07T05:46:23.671Z,4.9
2022-11-07T05:47:23.758Z,4.9
2022-11-07T05:48:23.645Z,4.9
2022-11-07T05:49:23.691Z,4.9
2022-11-07T05:50:23.647Z,4.9
2022-11-07T05:51:23.653Z,4.9
2022-11-07T05:52:23.644Z,4.9
2022-11-07T05:53:23.722Z,4.9
2022-11-07T05:54:23.672Z,4.9
2022-11-07T05:55:23.649Z,4.9
2022-11-07T05:56:23.654Z,4.9
2022-11-07T05:57:23.646Z,4.9
2022-11-07T05:58:23.655Z,4.9
2022-11-07T05:59:23.649Z,5
2022-11-07T06:00:23.644Z,4.9
2022-11-07T06:01:23.716Z,4.9
2022-11-07T06:02:23.832Z,4.9
2022-11-07T06:03:23.793Z,5
2022-11-07T06:04:23.658Z,5
2022-11-07T06:05:24.442Z,5
2022-11-07T06:06:23.645Z,5
2022-11-07T06:07:23.673Z,5
2022-11-07T06:08:23.651Z,5
2022-11-07T06:09:23.658Z,5
2022-11-07T06:10:23.655Z,5
2022-11-07T06:11:23.682Z,5
2022-11-07T06:12:23.640Z,5.1
2022-11-07T06:13:23.655Z,5.1
2022-11-07T06:14:23.667Z,5.1
2022-11-07T06:15:23.652Z,5.1
2022-11-07T06:16:23.650Z,5.1
2022-11-07T06:17:23.654Z,5.1
2022-11-07T06:18:23.677Z,5.1
2022-11-07T06:19:23.684Z,5.1
2022-11-07T06:20:23.652Z,5.1
2022-11-07T06:21:23.645Z,5.1
2022-11-07T06:22:23.654Z,5.1
2022-11-07T06:23:23.639Z,5.1
2022-11-07T06:24:23.671Z,5.1
2022-11-07T06:25:23.653Z,5.2
2022-11-07T06:26:23.647Z,5.1
2022-11-07T06:27:23.652Z,5.2
2022-11-07T06:28:23.645Z,5.2
2022-11-07T06:29:23.658Z,5.2
2022-11-07T06:30:23.650Z,5.2
2022-11-07T06:31:23.648Z,5.3
2022-11-07T06:32:23.650Z,5.3
2022-11-07T06:33:23.657Z,5.2
2022-11-07T06:34:23.659Z,5.3
2022-11-07T06:35:23.649Z,5.3
2022-11-07T06:36:23.649Z,5.3
2022-11-07T06:37:23.649Z,5.3
2022-11-07T06:38:23.652Z,5.3
2022-11-07T06:39:23.670Z,5.3
2022-11-07T06:40:23.655Z,5.3
2022-11-07T06:41:23.655Z,5.3
2022-11-07T06:42:23.650Z,5.3
2022-11-07T06:43:23.639Z,5.3
2022-11-07T06:44:23.675Z,5.3
2022-11-07T06:45:23.640Z,5.4
2022-11-07T06:46:23.647Z,5.4
2022-11-07T06:47:23.637Z,5.4
2022-11-07T06:48:23.660Z,5.4
2022-11-07T06:49:23.679Z,5.4
2022-11-07T06:50:23.648Z,5.5
2022-11-07T06:51:23.642Z,5.4
2022-11-07T06:52:23.642Z,5.5
2022-11-07T06:53:23.643Z,5.4
2022-11-07T06:54:23.717Z,5.4
2022-11-07T06:55:23.642Z,5.4
2022-11-07T06:56:23.644Z,5.4
2022-11-07T06:57:23.639Z,5.5
2022-11-07T06:58:23.661Z,5.5
2022-11-07T06:59:23.652Z,5.5
2022-11-07T07:00:23.642Z,5.5
2022-11-07T07:01:23.791Z,5.5
2022-11-07T07:02:44.267Z,5.5
2022-11-07T07:03:23.641Z,5.5
2022-11-07T07:04:23.714Z,5.5
2022-11-07T07:05:23.669Z,5.5
2022-11-07T07:06:23.652Z,5.6
2022-11-07T07:07:23.642Z,5.6
2022-11-07T07:08:23.657Z,5.6
2022-11-07T07:09:23.693Z,5.6
2022-11-07T07:10:23.641Z,5.6
2022-11-07T07:11:23.650Z,5.6
2022-11-07T07:12:23.648Z,5.6
2022-11-07T07:13:23.641Z,5.6
2022-11-07T07:14:23.661Z,5.7
2022-11-07T07:15:23.655Z,5.7
2022-11-07T07:16:23.653Z,5.7
2022-11-07T07:17:23.678Z,5.7
2022-11-07T07:18:23.656Z,5.7
2022-11-07T07:19:23.676Z,5.7
2022-11-07T07:20:23.775Z,5.7
2022-11-07T07:21:23.655Z,5.8
2022-11-07T07:22:23.639Z,5.7
2022-11-07T07:23:23.650Z,5.7
2022-11-07T07:24:23.679Z,5.7
2022-11-07T07:25:23.648Z,5.7
2022-11-07T07:26:23.656Z,5.7
2022-11-07T07:27:23.648Z,5.8
2022-11-07T07:28:23.668Z,5.8
2022-11-07T07:29:23.667Z,5.8
2022-11-07T07:30:23.647Z,5.8
2022-11-07T07:31:23.656Z,5.8
2022-11-07T07:32:23.658Z,5.8
2022-11-07T07:33:23.643Z,5.8
2022-11-07T07:34:23.758Z,5.8
2022-11-07T07:35:23.664Z,5.8
2022-11-07T07:36:23.667Z,5.7
2022-11-07T07:37:23.655Z,5.8
2022-11-07T07:38:23.757Z,5.8
2022-11-07T07:39:23.673Z,5.9
2022-11-07T07:40:23.635Z,5.9
2022-11-07T07:41:23.643Z,5.9
2022-11-07T07:42:23.660Z,5.9
2022-11-07T07:43:23.656Z,5.9
2022-11-07T07:44:23.677Z,5.9
2022-11-07T07:45:23.664Z,5.9
2022-11-07T07:46:23.661Z,5.9
2022-11-07T07:47:23.638Z,5.9
2022-11-07T07:48:23.654Z,5.9
2022-11-07T07:49:23.658Z,6
2022-11-07T07:50:23.646Z,6
2022-11-07T07:51:23.771Z,5.9
2022-11-07T07:52:23.643Z,6
2022-11-07T07:53:23.653Z,6
2022-11-07T07:54:23.675Z,6.1
2022-11-07T07:55:23.651Z,6.1
2022-11-07T07:56:23.642Z,6.1
2022-11-07T07:57:23.654Z,6
2022-11-07T07:58:23.656Z,6.1
2022-11-07T07:59:23.660Z,6.1
2022-11-07T08:00:23.660Z,6.1
2022-11-07T08:01:23.837Z,6.1
2022-11-07T08:02:23.744Z,6.1
2022-11-07T08:03:23.654Z,6.1
2022-11-07T08:04:23.662Z,6.1
2022-11-07T08:05:23.664Z,6.1
2022-11-07T08:06:23.686Z,6.1
2022-11-07T08:07:23.685Z,6.1
2022-11-07T08:08:23.662Z,6.2
2022-11-07T08:09:23.696Z,6.2
2022-11-07T08:10:43.520Z,6.1
2022-11-07T08:11:23.663Z,6.1
2022-11-07T08:12:23.653Z,6.1
2022-11-07T08:13:23.655Z,6.1
2022-11-07T08:14:23.699Z,6.1
2022-11-07T08:15:23.659Z,6.1
2022-11-07T08:16:23.689Z,6.1
2022-11-07T08:17:23.651Z,6.2
2022-11-07T08:18:23.653Z,6.2
2022-11-07T08:19:23.674Z,6.2
2022-11-07T08:20:23.659Z,6.2
2022-11-07T08:21:23.674Z,6.1
2022-11-07T08:22:23.759Z,6.2
2022-11-07T08:23:23.786Z,6.2
2022-11-07T08:24:23.674Z,6.2
2022-11-07T08:25:23.690Z,6.1
2022-11-07T08:26:23.656Z,6.2
2022-11-07T08:27:23.654Z,6.2
2022-11-07T08:28:23.732Z,6.2
2022-11-07T08:29:23.690Z,6.2
2022-11-07T08:30:23.662Z,6.1
2022-11-07T08:31:23.677Z,6.1
2022-11-07T08:32:23.661Z,6.1
2022-11-07T08:33:23.727Z,6.1
2022-11-07T08:34:23.668Z,6.1
2022-11-07T08:35:23.666Z,6.1
2022-11-07T08:36:23.669Z,6.2
2022-11-07T08:37:23.659Z,6.2
2022-11-07T08:38:23.746Z,6.2
2022-11-07T08:39:23.683Z,6.2
2022-11-07T08:40:23.667Z,6.2
2022-11-07T08:41:23.652Z,6.2
2022-11-07T08:42:23.663Z,6.1
2022-11-07T08:43:23.671Z,6.1
2022-11-07T08:44:23.694Z,6.2
2022-11-07T08:45:23.656Z,6.1
2022-11-07T08:46:23.659Z,6.1
2022-11-07T08:47:23.668Z,6.1
2022-11-07T08:48:23.753Z,6.1
2022-11-07T08:49:23.721Z,6.1
2022-11-07T08:50:23.669Z,6.2
2022-11-07T08:51:23.673Z,6.2
2022-11-07T08:52:23.663Z,6.3
2022-11-07T08:53:23.739Z,6.2
2022-11-07T08:54:23.685Z,6.2
2022-11-07T08:55:23.678Z,6.2
2022-11-07T08:56:23.669Z,6.3
2022-11-07T08:57:23.684Z,6.2
2022-11-07T08:58:29.750Z,6.2
2022-11-07T08:59:23.675Z,6.2
2022-11-07T09:00:23.760Z,6.3
2022-11-07T09:01:23.851Z,6.2
2022-11-07T09:03:12.638Z,6.2
2022-11-07T09:03:44.171Z,6.3
2022-11-07T09:04:23.736Z,6.3
2022-11-07T09:05:23.680Z,6.3
2022-11-07T09:06:23.658Z,6.3
2022-11-07T09:07:23.666Z,6.3
2022-11-07T09:08:23.685Z,6.3
2022-11-07T09:09:23.694Z,6.3
2022-11-07T09:10:23.687Z,6.3
2022-11-07T09:11:23.691Z,6.2
2022-11-07T09:12:23.670Z,6.3
2022-11-07T09:13:23.680Z,6.3
2022-11-07T09:14:23.672Z,6.1
2022-11-07T09:15:23.686Z,6.1
2022-11-07T09:16:23.667Z,6.1
2022-11-07T09:17:23.664Z,6.1
2022-11-07T09:18:23.661Z,6
2022-11-07T09:19:23.681Z,6
2022-11-07T09:20:23.665Z,6
2022-11-07T09:21:23.671Z,6
2022-11-07T09:22:23.673Z,6
2022-11-07T09:23:23.706Z,6
2022-11-07T09:24:23.722Z,6
2022-11-07T09:25:23.672Z,6
2022-11-07T09:26:23.665Z,6
2022-11-07T09:27:23.659Z,6.1
2022-11-07T09:28:23.665Z,6.1
2022-11-07T09:29:23.688Z,6
2022-11-07T09:30:23.660Z,6
2022-11-07T09:31:23.677Z,6
2022-11-07T09:32:43.773Z,6
2022-11-07T09:33:23.664Z,6
2022-11-07T09:34:23.681Z,6
2022-11-07T09:35:23.677Z,6.1
2022-11-07T09:36:23.659Z,6.1
2022-11-07T09:37:23.661Z,6.1
2022-11-07T09:38:23.688Z,6.1
2022-11-07T09:39:23.696Z,6.1
2022-11-07T09:40:23.722Z,6.1
2022-11-07T09:41:23.668Z,6.1
2022-11-07T09:42:23.696Z,6.2
2022-11-07T09:43:23.677Z,6.2
2022-11-07T09:44:28.053Z,6.2
2022-11-07T09:45:23.732Z,6.2
2022-11-07T09:46:23.673Z,6.3
2022-11-07T09:47:23.689Z,6.3
2022-11-07T09:48:23.676Z,6.3
2022-11-07T09:49:23.698Z,6.3
2022-11-07T09:50:23.790Z,6.3
2022-11-07T09:51:23.668Z,6.3
2022-11-07T09:52:23.674Z,6.4
2022-11-07T09:53:23.681Z,6.4
2022-11-07T09:54:23.684Z,6.4
2022-11-07T09:55:23.818Z,6.3
2022-11-07T09:56:23.678Z,6.4
2022-11-07T09:57:23.681Z,6.4
2022-11-07T09:58:23.675Z,6.5
2022-11-07T09:59:23.677Z,6.6
2022-11-07T10:00:23.684Z,6.6
2022-11-07T10:01:23.834Z,6.7
2022-11-07T10:02:23.726Z,6.6
2022-11-07T10:03:23.677Z,6.6
2022-11-07T10:04:25.807Z,6.6
2022-11-07T10:05:23.675Z,6.6
2022-11-07T10:06:24.428Z,6.6
2022-11-07T10:07:23.679Z,6.5
2022-11-07T10:08:23.663Z,6.6
2022-11-07T10:09:23.703Z,6.6
2022-11-07T10:10:23.676Z,6.6
2022-11-07T10:11:23.675Z,6.6
2022-11-07T10:12:23.677Z,6.7
2022-11-07T10:13:23.677Z,6.7
2022-11-07T10:14:23.702Z,6.7
2022-11-07T10:15:23.669Z,6.6
2022-11-07T10:16:23.666Z,6.6
2022-11-07T10:17:23.684Z,6.6
2022-11-07T10:18:23.723Z,6.7
2022-11-07T10:19:23.687Z,6.7
2022-11-07T10:20:25.195Z,6.7
2022-11-07T10:21:39.564Z,6.7
2022-11-07T10:22:23.679Z,6.7
2022-11-07T10:23:23.671Z,6.7
2022-11-07T10:24:23.707Z,6.7
2022-11-07T10:25:23.680Z,6.6
2022-11-07T10:26:23.704Z,6.6
2022-11-07T10:27:23.670Z,6.6
2022-11-07T10:28:23.684Z,6.7
2022-11-07T10:29:23.710Z,6.7
2022-11-07T10:30:23.694Z,6.7
2022-11-07T10:31:23.683Z,6.6
2022-11-07T10:32:23.685Z,6.6
2022-11-07T10:33:23.681Z,6.6
2022-11-07T10:34:23.725Z,6.6
2022-11-07T10:35:23.671Z,6.7
2022-11-07T10:36:23.697Z,6.7
2022-11-07T10:37:23.669Z,6.8
2022-11-07T10:38:23.669Z,6.8
2022-11-07T10:39:23.718Z,6.8
2022-11-07T10:40:23.683Z,6.9
2022-11-07T10:41:23.674Z,6.9
2022-11-07T10:42:23.670Z,7
2022-11-07T10:43:23.685Z,7
2022-11-07T10:44:23.702Z,6.9
2022-11-07T10:45:23.676Z,6.9
2022-11-07T10:46:23.723Z,6.9
2022-11-07T10:47:23.670Z,7
2022-11-07T10:48:23.680Z,7
2022-11-07T10:49:23.718Z,7.1
2022-11-07T10:50:23.715Z,7
2022-11-07T10:51:23.702Z,7
2022-11-07T10:52:23.686Z,7
2022-11-07T10:53:23.685Z,7
2022-11-07T10:54:23.725Z,6.9
2022-11-07T10:55:23.674Z,6.9
2022-11-07T10:56:23.680Z,7.1
2022-11-07T10:57:23.746Z,7.1
2022-11-07T10:58:23.683Z,7
2022-11-07T10:59:23.714Z,7.1
2022-11-07T11:00:23.672Z,7.2
2022-11-07T11:01:23.848Z,7.2
2022-11-07T11:02:23.792Z,7.3
2022-11-07T11:03:28.903Z,7.3
2022-11-07T11:04:23.696Z,7.3
2022-11-07T11:05:23.678Z,7.3
2022-11-07T11:06:23.723Z,7.4
2022-11-07T11:07:28.201Z,7.4
2022-11-07T11:08:23.672Z,7.4
2022-11-07T11:09:23.752Z,7.4
2022-11-07T11:10:23.682Z,7.3
2022-11-07T11:11:23.686Z,7.4
2022-11-07T11:12:23.689Z,7.4
2022-11-07T11:13:23.679Z,7.4
2022-11-07T11:14:23.737Z,7.3
2022-11-07T11:15:23.830Z,7.4
2022-11-07T11:16:23.679Z,7.4
2022-11-07T11:17:23.762Z,7.4
2022-11-07T11:18:23.680Z,7.4
2022-11-07T11:19:23.716Z,7.4
2022-11-07T11:20:23.706Z,7.4
2022-11-07T11:21:23.708Z,7.4
2022-11-07T11:22:23.692Z,7.4
2022-11-07T11:23:23.687Z,7.4
2022-11-07T11:24:23.701Z,7.4
2022-11-07T11:25:23.686Z,7.5
2022-11-07T11:26:23.681Z,7.4
2022-11-07T11:27:23.691Z,7.4
2022-11-07T11:28:23.762Z,7.4
2022-11-07T11:29:23.689Z,7.5
2022-11-07T11:30:23.681Z,7.5
2022-11-07T11:31:23.692Z,7.5
2022-11-07T11:32:23.687Z,7.7
2022-11-07T11:33:23.698Z,7.6
2022-11-07T11:34:23.715Z,7.7
2022-11-07T11:35:23.693Z,7.8
2022-11-07T11:36:23.702Z,7.8
2022-11-07T11:37:23.690Z,7.7
2022-11-07T11:38:23.679Z,7.7
2022-11-07T11:39:23.712Z,7.7
2022-11-07T11:40:23.696Z,7.7
2022-11-07T11:41:23.685Z,7.6
2022-11-07T11:42:23.704Z,7.7
2022-11-07T11:43:23.694Z,7.7
2022-11-07T11:44:23.718Z,7.7
2022-11-07T11:45:23.685Z,7.8
2022-11-07T11:46:23.694Z,7.6
2022-11-07T11:47:23.691Z,7.7
2022-11-07T11:48:23.703Z,7.6
2022-11-07T11:49:23.714Z,7.6
2022-11-07T11:50:23.709Z,7.6
2022-11-07T11:51:23.695Z,7.7
2022-11-07T11:52:23.713Z,7.7
2022-11-07T11:53:23.707Z,7.8
2022-11-07T11:54:23.699Z,7.8
2022-11-07T11:55:23.701Z,7.8
2022-11-07T11:56:23.692Z,7.8
2022-11-07T11:57:23.693Z,7.9
2022-11-07T11:58:23.690Z,8
2022-11-07T11:59:23.724Z,8
2022-11-07T12:00:23.690Z,7.9
2022-11-07T12:01:23.791Z,7.9
2022-11-07T12:02:23.734Z,8
2022-11-07T12:03:23.697Z,8.1
2022-11-07T12:04:23.694Z,8
2022-11-07T12:05:23.695Z,8.1
2022-11-07T12:06:23.709Z,8.1
2022-11-07T12:07:23.684Z,8.1
2022-11-07T12:08:23.688Z,8.1
2022-11-07T12:09:23.703Z,8.1
2022-11-07T12:10:23.696Z,8.1
2022-11-07T12:11:23.697Z,8.1
2022-11-07T12:12:23.713Z,8.2
2022-11-07T12:13:23.695Z,8.1
2022-11-07T12:14:23.718Z,8.1
2022-11-07T12:15:23.694Z,8.2
2022-11-07T12:16:23.691Z,8.1
2022-11-07T12:17:23.701Z,8.2
2022-11-07T12:18:23.690Z,8.1
2022-11-07T12:19:23.706Z,8.2
2022-11-07T12:20:23.705Z,8
2022-11-07T12:21:23.733Z,8.1
2022-11-07T12:22:23.697Z,8.2
2022-11-07T12:23:23.725Z,8.1
2022-11-07T12:24:23.708Z,8.2
2022-11-07T12:25:23.706Z,8.3
2022-11-07T12:26:23.707Z,8.3
2022-11-07T12:27:26.997Z,8.2
2022-11-07T12:28:23.697Z,8.3
2022-11-07T12:29:23.708Z,8.3
2022-11-07T12:30:23.770Z,8.4
2022-11-07T12:31:23.702Z,8.3
2022-11-07T12:32:53.039Z,9.4
2022-11-07T12:32:53.196Z,9.5
2022-11-07T12:33:23.701Z,8.3
2022-11-07T12:34:23.724Z,8.4
2022-11-07T12:35:23.712Z,8.3
2022-11-07T12:36:23.744Z,8.2
2022-11-07T12:38:23.719Z,8.2
2022-11-07T12:39:23.715Z,8.4
2022-11-07T12:40:23.694Z,8.3
2022-11-07T12:41:23.706Z,8.3
2022-11-07T12:42:23.713Z,8.2
2022-11-07T12:43:23.708Z,8.2
2022-11-07T12:44:23.701Z,8.2
2022-11-07T12:45:23.707Z,8.2
2022-11-07T12:46:23.705Z,8.1
2022-11-07T12:47:23.703Z,8.2
2022-11-07T12:48:23.712Z,8.2
2022-11-07T12:49:23.718Z,8.2
2022-11-07T12:50:23.704Z,8.2
2022-11-07T12:51:23.705Z,8.2
2022-11-07T12:52:23.717Z,8.1
2022-11-07T12:53:23.704Z,8.1
2022-11-07T12:54:23.703Z,8.1
2022-11-07T12:55:23.713Z,8
2022-11-07T12:56:23.701Z,7.9
2022-11-07T12:57:23.700Z,8
2022-11-07T12:58:23.710Z,8
2022-11-07T12:59:23.721Z,8.1
2022-11-07T13:00:29.159Z,8.1
2022-11-07T13:01:23.878Z,8
2022-11-07T13:02:23.766Z,8.1
2022-11-07T13:03:23.705Z,8
2022-11-07T13:04:23.726Z,8
2022-11-07T13:05:23.700Z,8
2022-11-07T13:06:23.750Z,8
2022-11-07T13:07:23.713Z,8.2
2022-11-07T13:08:23.701Z,8.1
2022-11-07T13:09:23.702Z,8.1
2022-11-07T13:10:23.710Z,8.1
2022-11-07T13:11:23.712Z,8
2022-11-07T13:12:23.700Z,8.1
2022-11-07T13:13:23.737Z,8
2022-11-07T13:14:24.601Z,8
2022-11-07T13:15:23.714Z,8
2022-11-07T13:16:23.691Z,8.1
2022-11-07T13:17:23.827Z,8.1
2022-11-07T13:18:23.738Z,8
2022-11-07T13:19:26.512Z,8
2022-11-07T13:20:23.721Z,8
2022-11-07T13:21:23.744Z,8
2022-11-07T13:22:23.714Z,8
2022-11-07T13:23:23.713Z,8.1
2022-11-07T13:24:23.723Z,8.1
2022-11-07T13:25:23.736Z,8.1
2022-11-07T13:26:45.799Z,8
2022-11-07T13:27:23.709Z,8
2022-11-07T13:28:23.715Z,8
2022-11-07T13:29:23.701Z,8
2022-11-07T13:30:23.706Z,8.1
2022-11-07T13:31:23.722Z,8.1
2022-11-07T13:32:23.731Z,8
2022-11-07T13:33:23.721Z,8.1
2022-11-07T13:34:23.712Z,8
2022-11-07T13:35:23.738Z,8.1
2022-11-07T13:36:23.716Z,8
2022-11-07T13:37:23.710Z,8.1
2022-11-07T13:38:23.705Z,8
2022-11-07T13:39:23.724Z,8.1
2022-11-07T13:40:23.708Z,8.1
2022-11-07T13:41:23.716Z,8.2
2022-11-07T13:42:23.719Z,8.2
2022-11-07T13:44:23.747Z,8
2022-11-07T13:45:23.708Z,8.1
2022-11-07T13:46:23.715Z,8
2022-11-07T13:47:23.715Z,8
2022-11-07T13:48:23.720Z,8
2022-11-07T13:49:23.743Z,8.1
2022-11-07T13:50:23.718Z,8
2022-11-07T13:51:23.720Z,8
2022-11-07T13:52:23.737Z,7.9
2022-11-07T13:53:23.710Z,8
2022-11-07T13:54:23.781Z,8.1
2022-11-07T13:55:23.715Z,7.9
2022-11-07T13:56:23.708Z,7.9
2022-11-07T13:57:23.724Z,7.9
2022-11-07T13:58:23.715Z,8
2022-11-07T13:59:23.747Z,7.9
2022-11-07T14:00:23.787Z,7.9
2022-11-07T14:01:23.886Z,7.9